createdAt,value
2018-09-16T00:00:56.017Z,15.14
2018-09-16T00:01:56.001Z,15.12
2018-09-16T00:02:55.987Z,15.05
2018-09-16T00:03:55.963Z,15.10
2018-09-16T00:04:55.945Z,15.02
2018-09-16T00:05:55.936Z,15.02
2018-09-16T00:06:55.911Z,15.10
2018-09-16T00:07:55.892Z,15.08
2018-09-16T00:08:55.871Z,15.04
2018-09-16T00:09:55.867Z,15.00
2018-09-16T00:10:55.835Z,15.04
2018-09-16T00:11:55.818Z,15.00
2018-09-16T00:12:55.798Z,14.94
2018-09-16T00:13:55.784Z,14.94
2018-09-16T00:14:55.762Z,14.97
2018-09-16T00:15:55.742Z,14.96
2018-09-16T00:16:55.754Z,14.96
2018-09-16T00:17:55.712Z,14.99
2018-09-16T00:18:55.687Z,14.99
2018-09-16T00:19:55.670Z,14.96
2018-09-16T00:20:55.668Z,14.97
2018-09-16T00:21:55.639Z,14.93
2018-09-16T00:22:55.616Z,15.04
2018-09-16T00:23:55.596Z,14.94
2018-09-16T00:24:55.588Z,14.94
2018-09-16T00:25:55.562Z,14.99
2018-09-16T00:26:55.540Z,14.92
2018-09-16T00:27:55.521Z,14.89
2018-09-16T00:28:55.526Z,14.87
2018-09-16T00:29:55.487Z,14.94
2018-09-16T00:30:55.468Z,14.94
2018-09-16T00:31:55.449Z,14.93
2018-09-16T00:32:55.452Z,14.93
2018-09-16T00:33:55.412Z,14.93
2018-09-16T00:34:55.397Z,14.93
2018-09-16T00:35:55.386Z,14.94
2018-09-16T00:36:55.357Z,14.93
2018-09-16T00:37:55.340Z,14.89
2018-09-16T00:38:55.320Z,14.94
2018-09-16T00:39:55.321Z,14.94
2018-09-16T00:40:55.306Z,14.97
2018-09-16T00:41:55.268Z,14.92
2018-09-16T00:42:55.255Z,14.87
2018-09-16T00:43:55.229Z,14.94
2018-09-16T00:44:55.223Z,14.90
2018-09-16T00:45:55.196Z,14.96
2018-09-16T00:46:55.207Z,14.99
2018-09-16T00:47:55.156Z,15.02
2018-09-16T00:48:55.133Z,14.94
2018-09-16T00:49:55.120Z,15.02
2018-09-16T00:50:55.098Z,14.93
2018-09-16T00:51:55.081Z,14.92
2018-09-16T00:52:55.060Z,14.94
2018-09-16T00:53:55.044Z,14.97
2018-09-16T00:54:55.023Z,14.93
2018-09-16T00:55:55.005Z,14.94
2018-09-16T00:56:54.987Z,14.90
2018-09-16T00:57:54.967Z,14.97
2018-09-16T00:58:54.957Z,14.93
2018-09-16T00:59:54.933Z,14.93
2018-09-16T01:00:54.921Z,14.86
2018-09-16T01:01:54.902Z,14.86
2018-09-16T01:02:54.881Z,14.82
2018-09-16T01:03:54.858Z,14.82
2018-09-16T01:04:54.837Z,14.78
2018-09-16T01:05:54.823Z,14.78
2018-09-16T01:06:54.802Z,14.81
2018-09-16T01:07:54.783Z,14.81
2018-09-16T01:08:54.764Z,14.70
2018-09-16T01:09:54.749Z,14.70
2018-09-16T01:10:54.734Z,14.77
2018-09-16T01:11:54.708Z,14.73
2018-09-16T01:12:54.689Z,14.67
2018-09-16T01:13:54.674Z,14.70
2018-09-16T01:14:54.655Z,14.74
2018-09-16T01:15:54.636Z,14.78
2018-09-16T01:16:54.615Z,14.67
2018-09-16T01:17:54.597Z,14.67
2018-09-16T01:18:54.578Z,14.63
2018-09-16T01:19:54.568Z,14.73
2018-09-16T01:20:54.541Z,14.67
2018-09-16T01:21:54.530Z,14.68
2018-09-16T01:22:54.505Z,14.73
2018-09-16T01:23:54.487Z,14.73
2018-09-16T01:24:54.466Z,14.66
2018-09-16T01:25:54.453Z,14.74
2018-09-16T01:26:54.430Z,14.70
2018-09-16T01:27:54.411Z,14.63
2018-09-16T01:28:54.392Z,14.61
2018-09-16T01:29:54.382Z,14.67
2018-09-16T01:30:54.355Z,14.53
2018-09-16T01:31:54.338Z,14.61
2018-09-16T01:32:54.317Z,14.55
2018-09-16T01:33:54.324Z,14.56
2018-09-16T01:34:54.280Z,14.61
2018-09-16T01:35:54.262Z,14.55
2018-09-16T01:36:54.242Z,14.56
2018-09-16T01:37:54.233Z,14.55
2018-09-16T01:38:54.206Z,14.56
2018-09-16T01:39:54.188Z,14.58
2018-09-16T01:40:54.168Z,14.51
2018-09-16T01:41:54.169Z,14.49
2018-09-16T01:42:54.131Z,14.53
2018-09-16T01:43:54.118Z,14.51
2018-09-16T01:44:54.096Z,14.36
2018-09-16T01:45:54.078Z,14.44
2018-09-16T01:46:54.057Z,14.48
2018-09-16T01:47:54.042Z,14.36
2018-09-16T01:48:54.019Z,14.41
2018-09-16T01:49:54.008Z,14.40
2018-09-16T01:50:53.983Z,14.49
2018-09-16T01:51:53.980Z,14.43
2018-09-16T01:52:53.943Z,14.41
2018-09-16T01:53:53.939Z,14.40
2018-09-16T01:54:53.907Z,14.37
2018-09-16T01:55:53.889Z,14.38
2018-09-16T01:56:53.870Z,14.44
2018-09-16T01:57:53.851Z,14.40
2018-09-16T01:58:53.834Z,14.38
2018-09-16T01:59:53.816Z,14.41
2018-09-16T02:00:53.794Z,14.30
2018-09-16T02:01:53.775Z,14.37
2018-09-16T02:02:53.758Z,14.33
2018-09-16T02:03:53.740Z,14.30
2018-09-16T02:04:53.719Z,14.28
2018-09-16T02:05:53.716Z,14.38
2018-09-16T02:06:53.683Z,14.31
2018-09-16T02:07:53.666Z,14.38
2018-09-16T02:08:53.646Z,14.33
2018-09-16T02:09:53.627Z,14.36
2018-09-16T02:10:53.608Z,14.31
2018-09-16T02:11:53.593Z,14.33
2018-09-16T02:12:53.574Z,14.40
2018-09-16T02:13:53.553Z,14.33
2018-09-16T02:14:53.532Z,14.34
2018-09-16T02:15:53.518Z,14.40
2018-09-16T02:16:53.495Z,14.26
2018-09-16T02:17:53.477Z,14.36
2018-09-16T02:18:53.458Z,14.33
2018-09-16T02:19:53.443Z,14.37
2018-09-16T02:20:53.424Z,14.34
2018-09-16T02:21:53.403Z,14.31
2018-09-16T02:22:53.383Z,14.28
2018-09-16T02:23:53.375Z,14.33
2018-09-16T02:24:53.349Z,14.31
2018-09-16T02:25:53.327Z,14.25
2018-09-16T02:26:53.307Z,14.25
2018-09-16T02:27:53.297Z,14.26
2018-09-16T02:28:53.271Z,14.28
2018-09-16T02:29:53.254Z,14.23
2018-09-16T02:30:53.232Z,14.28
2018-09-16T02:31:53.221Z,14.22
2018-09-16T02:32:53.197Z,14.28
2018-09-16T02:33:53.178Z,14.26
2018-09-16T02:34:53.159Z,14.26
2018-09-16T02:35:53.138Z,14.25
2018-09-16T02:36:53.120Z,14.23
2018-09-16T02:37:53.105Z,14.18
2018-09-16T02:38:53.082Z,14.22
2018-09-16T02:39:53.064Z,14.19
2018-09-16T02:40:53.045Z,14.04
2018-09-16T02:41:53.025Z,14.08
2018-09-16T02:42:53.007Z,14.12
2018-09-16T02:43:52.987Z,14.08
2018-09-16T02:44:52.969Z,14.05
2018-09-16T02:45:52.951Z,14.07
2018-09-16T02:46:52.931Z,14.12
2018-09-16T02:47:52.914Z,14.11
2018-09-16T02:48:52.893Z,14.07
2018-09-16T02:49:52.873Z,14.13
2018-09-16T02:50:52.861Z,14.08
2018-09-16T02:51:52.836Z,14.12
2018-09-16T02:52:52.822Z,14.18
2018-09-16T02:53:52.800Z,14.07
2018-09-16T02:54:52.783Z,14.16
2018-09-16T02:55:52.763Z,14.08
2018-09-16T02:56:52.756Z,14.13
2018-09-16T02:57:52.725Z,14.04
2018-09-16T02:58:52.725Z,14.11
2018-09-16T02:59:52.686Z,14.13
2018-09-16T03:00:52.677Z,14.13
2018-09-16T03:01:52.647Z,14.15
2018-09-16T03:02:52.634Z,14.15
2018-09-16T03:03:52.609Z,14.15
2018-09-16T03:04:52.594Z,14.12
2018-09-16T03:05:52.573Z,14.04
2018-09-16T03:06:52.554Z,14.01
2018-09-16T03:07:52.533Z,14.05
2018-09-16T03:08:52.522Z,14.00
2018-09-16T03:09:52.497Z,13.91
2018-09-16T03:10:52.478Z,13.95
2018-09-16T03:11:52.632Z,13.89
2018-09-16T03:12:52.445Z,13.87
2018-09-16T03:13:52.420Z,13.89
2018-09-16T03:14:52.404Z,13.97
2018-09-16T03:15:52.384Z,13.95
2018-09-16T03:16:52.398Z,13.94
2018-09-16T03:17:52.353Z,13.95
2018-09-16T03:18:52.400Z,13.89
2018-09-16T03:19:52.312Z,13.85
2018-09-16T03:20:52.461Z,13.89
2018-09-16T03:21:52.268Z,13.85
2018-09-16T03:22:52.250Z,13.89
2018-09-16T03:23:52.232Z,13.89
2018-09-16T03:24:52.216Z,13.93
2018-09-16T03:25:52.192Z,13.93
2018-09-16T03:26:52.178Z,13.89
2018-09-16T03:27:52.159Z,13.91
2018-09-16T03:28:52.178Z,13.89
2018-09-16T03:29:52.116Z,13.93
2018-09-16T03:30:52.098Z,13.87
2018-09-16T03:31:52.080Z,13.85
2018-09-16T03:32:52.061Z,13.93
2018-09-16T03:33:52.042Z,13.89
2018-09-16T03:34:52.023Z,13.86
2018-09-16T03:35:52.004Z,13.87
2018-09-16T03:36:51.989Z,13.91
2018-09-16T03:37:51.966Z,13.85
2018-09-16T03:38:51.952Z,13.87
2018-09-16T03:39:51.930Z,13.87
2018-09-16T03:40:51.930Z,13.85
2018-09-16T03:41:51.889Z,13.93
2018-09-16T03:42:51.871Z,13.86
2018-09-16T03:43:51.859Z,13.87
2018-09-16T03:44:51.835Z,13.93
2018-09-16T03:45:51.813Z,13.87
2018-09-16T03:46:51.806Z,13.93
2018-09-16T03:47:51.775Z,13.76
2018-09-16T03:48:51.755Z,13.76
2018-09-16T03:49:51.741Z,13.86
2018-09-16T03:50:51.774Z,13.83
2018-09-16T03:51:51.699Z,13.86
2018-09-16T03:52:51.695Z,13.80
2018-09-16T03:53:51.668Z,13.82
2018-09-16T03:54:51.646Z,13.79
2018-09-16T03:55:51.623Z,13.80
2018-09-16T03:56:51.612Z,13.78
2018-09-16T03:57:51.588Z,13.79
2018-09-16T03:58:51.596Z,13.71
2018-09-16T03:59:51.547Z,13.78
2018-09-16T04:00:51.539Z,13.70
2018-09-16T04:01:51.510Z,13.73
2018-09-16T04:02:51.489Z,13.70
2018-09-16T04:03:51.470Z,13.67
2018-09-16T04:04:51.466Z,13.76
2018-09-16T04:05:51.430Z,13.70
2018-09-16T04:06:51.412Z,13.70
2018-09-16T04:07:51.398Z,13.65
2018-09-16T04:08:51.390Z,13.61
2018-09-16T04:09:51.353Z,13.73
2018-09-16T04:10:51.337Z,13.64
2018-09-16T04:11:51.318Z,13.65
2018-09-16T04:12:51.301Z,13.57
2018-09-16T04:13:51.297Z,13.67
2018-09-16T04:14:51.260Z,13.75
2018-09-16T04:15:51.242Z,13.67
2018-09-16T04:16:51.222Z,13.62
2018-09-16T04:17:51.207Z,13.64
2018-09-16T04:18:51.183Z,13.61
2018-09-16T04:19:51.165Z,13.61
2018-09-16T04:20:51.165Z,13.64
2018-09-16T04:21:51.133Z,13.58
2018-09-16T04:22:51.106Z,13.60
2018-09-16T04:23:51.088Z,13.60
2018-09-16T04:24:51.066Z,13.67
2018-09-16T04:25:51.050Z,13.61
2018-09-16T04:26:51.033Z,13.54
2018-09-16T04:27:51.011Z,13.60
2018-09-16T04:28:50.996Z,13.64
2018-09-16T04:29:50.973Z,13.62
2018-09-16T04:30:50.955Z,13.58
2018-09-16T04:31:50.936Z,13.60
2018-09-16T04:32:50.917Z,13.60
2018-09-16T04:33:50.895Z,13.58
2018-09-16T04:34:50.876Z,13.54
2018-09-16T04:35:50.858Z,13.58
2018-09-16T04:36:50.841Z,13.54
2018-09-16T04:37:50.833Z,13.60
2018-09-16T04:38:50.811Z,13.58
2018-09-16T04:39:50.782Z,13.55
2018-09-16T04:40:50.764Z,13.55
2018-09-16T04:41:50.740Z,13.49
2018-09-16T04:42:50.725Z,13.54
2018-09-16T04:43:50.704Z,13.54
2018-09-16T04:44:50.720Z,13.52
2018-09-16T04:45:50.667Z,13.52
2018-09-16T04:46:50.652Z,13.54
2018-09-16T04:47:50.625Z,13.52
2018-09-16T04:48:50.606Z,13.60
2018-09-16T04:49:50.602Z,13.54
2018-09-16T04:50:50.570Z,13.43
2018-09-16T04:51:50.558Z,13.46
2018-09-16T04:52:50.532Z,13.43
2018-09-16T04:53:50.534Z,13.46
2018-09-16T04:54:50.492Z,13.43
2018-09-16T04:55:50.477Z,13.45
2018-09-16T04:56:50.452Z,13.42
2018-09-16T04:57:50.436Z,13.45
2018-09-16T04:58:50.415Z,13.43
2018-09-16T04:59:50.396Z,13.46
2018-09-16T05:00:50.375Z,13.47
2018-09-16T05:01:50.356Z,13.46
2018-09-16T05:02:50.338Z,13.45
2018-09-16T05:03:50.328Z,13.55
2018-09-16T05:04:50.299Z,13.55
2018-09-16T05:05:50.288Z,13.54
2018-09-16T05:06:50.264Z,13.55
2018-09-16T05:07:50.243Z,13.57
2018-09-16T05:08:50.221Z,13.57
2018-09-16T05:09:50.204Z,13.57
2018-09-16T05:10:50.182Z,13.55
2018-09-16T05:11:50.181Z,13.52
2018-09-16T05:12:50.144Z,13.46
2018-09-16T05:13:50.133Z,13.46
2018-09-16T05:14:50.107Z,13.46
2018-09-16T05:15:50.101Z,13.50
2018-09-16T05:16:50.072Z,13.42
2018-09-16T05:17:50.054Z,13.37
2018-09-16T05:18:50.280Z,13.46
2018-09-16T05:19:50.020Z,13.42
2018-09-16T05:20:49.991Z,13.46
2018-09-16T05:21:49.978Z,13.42
2018-09-16T05:22:49.952Z,13.37
2018-09-16T05:23:49.934Z,13.43
2018-09-16T05:24:49.915Z,13.42
2018-09-16T05:25:49.891Z,13.49
2018-09-16T05:26:49.872Z,13.37
2018-09-16T05:27:49.854Z,13.46
2018-09-16T05:28:49.834Z,13.39
2018-09-16T05:29:49.819Z,13.43
2018-09-16T05:30:49.801Z,13.42
2018-09-16T05:31:49.776Z,13.47
2018-09-16T05:32:49.758Z,13.46
2018-09-16T05:33:49.742Z,13.43
2018-09-16T05:34:49.723Z,13.54
2018-09-16T05:35:49.738Z,13.50
2018-09-16T05:36:49.680Z,13.54
2018-09-16T05:37:49.662Z,13.62
2018-09-16T05:38:49.643Z,13.58
2018-09-16T05:39:49.624Z,13.62
2018-09-16T05:40:49.601Z,13.57
2018-09-16T05:41:49.586Z,13.60
2018-09-16T05:42:49.592Z,13.58
2018-09-16T05:43:49.545Z,13.57
2018-09-16T05:44:49.524Z,13.55
2018-09-16T05:45:49.516Z,13.61
2018-09-16T05:46:49.489Z,13.61
2018-09-16T05:47:49.468Z,13.68
2018-09-16T05:48:49.449Z,13.64
2018-09-16T05:49:49.428Z,13.79
2018-09-16T05:50:49.414Z,13.64
2018-09-16T05:51:49.389Z,13.67
2018-09-16T05:52:49.430Z,13.75
2018-09-16T05:53:49.359Z,13.68
2018-09-16T05:54:49.333Z,13.73
2018-09-16T05:55:49.313Z,13.78
2018-09-16T05:56:49.294Z,13.70
2018-09-16T05:57:49.275Z,13.76
2018-09-16T05:58:49.254Z,13.76
2018-09-16T05:59:49.236Z,13.80
2018-09-16T06:00:49.217Z,13.79
2018-09-16T06:01:49.197Z,13.79
2018-09-16T06:02:49.178Z,13.80
2018-09-16T06:03:49.157Z,13.83
2018-09-16T06:04:49.141Z,13.76
2018-09-16T06:05:49.121Z,13.79
2018-09-16T06:06:49.101Z,13.78
2018-09-16T06:07:49.083Z,13.87
2018-09-16T06:08:49.064Z,13.85
2018-09-16T06:09:49.044Z,13.85
2018-09-16T06:10:49.029Z,13.91
2018-09-16T06:11:49.005Z,13.89
2018-09-16T06:12:48.990Z,13.89
2018-09-16T06:13:48.967Z,13.91
2018-09-16T06:14:48.949Z,13.87
2018-09-16T06:15:48.928Z,13.89
2018-09-16T06:16:48.908Z,13.93
2018-09-16T06:17:48.900Z,13.93
2018-09-16T06:18:48.869Z,13.98
2018-09-16T06:19:48.855Z,13.95
2018-09-16T06:20:48.833Z,14.01
2018-09-16T06:21:48.814Z,14.08
2018-09-16T06:22:48.844Z,14.03
2018-09-16T06:23:48.823Z,14.05
2018-09-16T06:24:48.754Z,14.08
2018-09-16T06:25:48.753Z,14.15
2018-09-16T06:26:48.717Z,14.16
2018-09-16T06:27:48.700Z,14.18
2018-09-16T06:28:48.677Z,14.07
2018-09-16T06:29:48.665Z,14.07
2018-09-16T06:30:48.642Z,14.20
2018-09-16T06:31:48.692Z,14.22
2018-09-16T06:32:48.600Z,14.26
2018-09-16T06:33:48.627Z,14.22
2018-09-16T06:34:48.563Z,14.22
2018-09-16T06:35:48.545Z,14.25
2018-09-16T06:36:48.534Z,14.30
2018-09-16T06:37:48.518Z,14.23
2018-09-16T06:38:48.492Z,14.26
2018-09-16T06:39:48.471Z,14.26
2018-09-16T06:40:48.451Z,14.22
2018-09-16T06:41:48.432Z,14.34
2018-09-16T06:42:48.412Z,14.28
2018-09-16T06:43:48.392Z,14.40
2018-09-16T06:44:48.373Z,14.38
2018-09-16T06:45:48.369Z,14.43
2018-09-16T06:46:48.334Z,14.48
2018-09-16T06:47:48.320Z,14.38
2018-09-16T06:48:48.300Z,14.43
2018-09-16T06:49:48.300Z,14.53
2018-09-16T06:50:48.266Z,14.51
2018-09-16T06:51:48.247Z,14.56
2018-09-16T06:52:48.226Z,14.52
2018-09-16T06:53:48.203Z,14.62
2018-09-16T06:54:48.185Z,14.63
2018-09-16T06:55:48.167Z,14.66
2018-09-16T06:56:48.146Z,14.63
2018-09-16T06:57:48.127Z,14.71
2018-09-16T06:58:48.128Z,14.78
2018-09-16T06:59:48.088Z,14.73
2018-09-16T07:00:48.250Z,14.70
2018-09-16T07:01:48.051Z,14.71
2018-09-16T07:02:48.031Z,14.78
2018-09-16T07:03:48.013Z,14.79
2018-09-16T07:04:48.004Z,14.87
2018-09-16T07:05:47.977Z,14.94
2018-09-16T07:06:47.997Z,14.93
2018-09-16T07:07:47.937Z,14.97
2018-09-16T07:08:47.921Z,14.94
2018-09-16T07:09:47.901Z,15.04
2018-09-16T07:10:47.883Z,14.96
2018-09-16T07:11:47.863Z,15.04
2018-09-16T07:12:47.848Z,15.08
2018-09-16T07:13:47.828Z,15.08
2018-09-16T07:14:47.808Z,15.14
2018-09-16T07:15:47.788Z,15.14
2018-09-16T07:16:47.770Z,15.17
2018-09-16T07:17:47.748Z,15.19
2018-09-16T07:18:47.752Z,15.19
2018-09-16T07:19:47.712Z,15.22
2018-09-16T07:20:47.702Z,15.27
2018-09-16T07:21:47.696Z,15.33
2018-09-16T07:22:47.660Z,15.32
2018-09-16T07:23:47.723Z,15.41
2018-09-16T07:24:47.617Z,15.39
2018-09-16T07:25:47.608Z,15.41
2018-09-16T07:26:47.620Z,15.48
2018-09-16T07:27:47.565Z,15.48
2018-09-16T07:28:47.549Z,15.48
2018-09-16T07:29:47.529Z,15.51
2018-09-16T07:30:47.519Z,15.44
2018-09-16T07:31:47.488Z,15.44
2018-09-16T07:32:47.470Z,15.55
2018-09-16T07:33:47.510Z,15.59
2018-09-16T07:34:47.447Z,15.52
2018-09-16T07:35:47.412Z,15.63
2018-09-16T07:36:47.402Z,15.63
2018-09-16T07:37:47.375Z,15.69
2018-09-16T07:38:47.372Z,15.72
2018-09-16T07:39:47.340Z,15.76
2018-09-16T07:40:47.318Z,15.80
2018-09-16T07:41:47.300Z,15.75
2018-09-16T07:42:47.290Z,15.75
2018-09-16T07:43:47.267Z,15.78
2018-09-16T07:44:47.274Z,15.84
2018-09-16T07:45:47.230Z,15.90
2018-09-16T07:46:47.244Z,15.80
2018-09-16T07:47:47.192Z,15.90
2018-09-16T07:48:47.171Z,15.88
2018-09-16T07:49:47.167Z,15.88
2018-09-16T07:50:47.153Z,15.87
2018-09-16T07:51:47.117Z,15.91
2018-09-16T07:52:47.145Z,15.96
2018-09-16T07:53:47.078Z,15.98
2018-09-16T07:54:47.061Z,16.00
2018-09-16T07:55:47.061Z,16.05
2018-09-16T07:56:47.026Z,16.08
2018-09-16T07:57:47.008Z,16.12
2018-09-16T07:58:47.057Z,16.26
2018-09-16T07:59:46.969Z,16.18
2018-09-16T08:00:47.048Z,16.22
2018-09-16T08:01:46.933Z,16.22
2018-09-16T08:02:46.918Z,16.28
2018-09-16T08:03:46.898Z,16.26
2018-09-16T08:04:46.875Z,16.32
2018-09-16T08:05:46.876Z,16.43
2018-09-16T08:06:46.846Z,16.36
2018-09-16T08:07:46.822Z,16.49
2018-09-16T08:08:46.804Z,16.44
2018-09-16T08:09:46.785Z,16.50
2018-09-16T08:10:46.774Z,16.41
2018-09-16T08:11:46.747Z,16.59
2018-09-16T08:12:46.728Z,16.54
2018-09-16T08:13:46.774Z,16.51
2018-09-16T08:14:46.724Z,16.62
2018-09-16T08:15:46.677Z,16.62
2018-09-16T08:16:46.655Z,16.73
2018-09-16T08:17:46.643Z,16.68
2018-09-16T08:18:46.630Z,16.72
2018-09-16T08:19:46.607Z,16.72
2018-09-16T08:20:46.594Z,16.79
2018-09-16T08:21:46.567Z,16.79
2018-09-16T08:22:46.562Z,16.82
2018-09-16T08:23:46.537Z,16.91
2018-09-16T08:24:46.521Z,16.89
2018-09-16T08:25:46.494Z,16.84
2018-09-16T08:26:46.510Z,16.98
2018-09-16T08:27:46.461Z,16.97
2018-09-16T08:28:46.442Z,17.02
2018-09-16T08:29:46.418Z,17.07
2018-09-16T08:30:46.404Z,17.09
2018-09-16T08:31:46.388Z,17.19
2018-09-16T08:32:46.371Z,17.22
2018-09-16T08:33:46.345Z,17.27
2018-09-16T08:34:46.347Z,17.35
2018-09-16T08:35:46.310Z,17.31
2018-09-16T08:36:46.293Z,17.32
2018-09-16T08:37:46.370Z,17.44
2018-09-16T08:38:46.261Z,17.52
2018-09-16T08:39:46.581Z,17.47
2018-09-16T08:40:46.219Z,17.53
2018-09-16T08:41:46.201Z,17.59
2018-09-16T08:42:46.184Z,17.57
2018-09-16T08:43:46.169Z,17.65
2018-09-16T08:44:46.146Z,17.59
2018-09-16T08:45:46.175Z,17.57
2018-09-16T08:46:46.123Z,17.65
2018-09-16T08:47:46.094Z,17.69
2018-09-16T08:48:46.076Z,17.72
2018-09-16T08:49:46.058Z,17.79
2018-09-16T08:50:46.046Z,17.75
2018-09-16T08:51:46.056Z,17.73
2018-09-16T08:52:46.005Z,17.84
2018-09-16T08:53:45.986Z,17.82
2018-09-16T08:54:45.975Z,17.90
2018-09-16T08:55:45.952Z,17.86
2018-09-16T08:56:45.953Z,17.93
2018-09-16T08:57:45.917Z,17.97
2018-09-16T08:58:46.433Z,18.05
2018-09-16T08:59:45.886Z,18.06
2018-09-16T09:00:45.861Z,18.09
2018-09-16T09:01:45.856Z,18.08
2018-09-16T09:02:45.832Z,18.19
2018-09-16T09:03:45.813Z,18.09
2018-09-16T09:04:45.794Z,18.19
2018-09-16T09:05:45.776Z,18.24
2018-09-16T09:06:45.757Z,18.24
2018-09-16T09:07:45.744Z,18.24
2018-09-16T09:08:46.145Z,18.26
2018-09-16T09:09:45.713Z,18.28
2018-09-16T09:10:45.690Z,18.30
2018-09-16T09:11:45.696Z,18.36
2018-09-16T09:12:45.659Z,18.28
2018-09-16T09:13:45.652Z,18.33
2018-09-16T09:14:45.616Z,18.34
2018-09-16T09:15:45.900Z,18.34
2018-09-16T09:16:45.580Z,18.41
2018-09-16T09:17:45.565Z,18.39
2018-09-16T09:18:45.554Z,18.41
2018-09-16T09:19:45.548Z,18.34
2018-09-16T09:20:45.516Z,18.31
2018-09-16T09:21:45.496Z,18.37
2018-09-16T09:22:45.477Z,18.43
2018-09-16T09:23:45.463Z,18.36
2018-09-16T09:24:45.494Z,18.48
2018-09-16T09:25:45.424Z,18.37
2018-09-16T09:26:45.412Z,18.42
2018-09-16T09:27:45.388Z,18.49
2018-09-16T09:28:45.374Z,18.45
2018-09-16T09:29:45.353Z,18.45
2018-09-16T09:30:45.336Z,18.53
2018-09-16T09:31:45.320Z,18.53
2018-09-16T09:32:45.323Z,18.58
2018-09-16T09:33:45.284Z,18.67
2018-09-16T09:34:45.273Z,18.71
2018-09-16T09:35:45.306Z,18.73
2018-09-16T09:36:45.246Z,18.74
2018-09-16T09:37:45.217Z,18.82
2018-09-16T09:38:45.221Z,18.91
2018-09-16T09:39:45.182Z,18.78
2018-09-16T09:40:45.170Z,18.92
2018-09-16T09:41:45.146Z,19.00
2018-09-16T09:42:45.148Z,19.05
2018-09-16T09:43:45.112Z,19.07
2018-09-16T09:44:45.098Z,19.12
2018-09-16T09:45:45.113Z,19.09
2018-09-16T09:46:45.067Z,19.20
2018-09-16T09:47:45.042Z,19.20
2018-09-16T09:48:45.029Z,19.19
2018-09-16T09:49:45.393Z,19.20
2018-09-16T09:50:44.990Z,19.23
2018-09-16T09:51:44.991Z,19.22
2018-09-16T09:52:44.955Z,19.20
2018-09-16T09:53:44.957Z,19.23
2018-09-16T09:54:44.921Z,19.17
2018-09-16T09:55:44.918Z,19.26
2018-09-16T09:56:44.887Z,19.23
2018-09-16T09:57:44.884Z,19.29
2018-09-16T09:58:44.854Z,19.37
2018-09-16T09:59:44.840Z,19.44
2018-09-16T10:00:44.841Z,19.42
2018-09-16T10:01:44.805Z,19.49
2018-09-16T10:02:44.783Z,19.55
2018-09-16T10:03:44.770Z,19.49
2018-09-16T10:04:44.752Z,19.70
2018-09-16T10:05:44.731Z,19.72
2018-09-16T10:06:44.723Z,19.74
2018-09-16T10:07:44.704Z,19.77
2018-09-16T10:08:44.684Z,19.66
2018-09-16T10:09:44.663Z,19.74
2018-09-16T10:10:44.651Z,19.77
2018-09-16T10:11:44.630Z,19.74
2018-09-16T10:12:44.623Z,19.79
2018-09-16T10:13:44.648Z,19.78
2018-09-16T10:14:44.582Z,19.79
2018-09-16T10:15:44.588Z,19.77
2018-09-16T10:16:44.552Z,19.84
2018-09-16T10:17:44.533Z,19.84
2018-09-16T10:18:44.516Z,19.87
2018-09-16T10:19:44.494Z,19.89
2018-09-16T10:20:44.482Z,19.84
2018-09-16T10:21:44.461Z,19.92
2018-09-16T10:22:44.494Z,19.94
2018-09-16T10:23:44.428Z,20.00
2018-09-16T10:24:44.409Z,20.11
2018-09-16T10:25:44.394Z,20.11
2018-09-16T10:26:44.404Z,20.10
2018-09-16T10:27:44.365Z,20.19
2018-09-16T10:28:44.346Z,20.19
2018-09-16T10:29:44.327Z,20.14
2018-09-16T10:30:44.310Z,20.19
2018-09-16T10:31:44.296Z,20.04
2018-09-16T10:32:44.281Z,20.08
2018-09-16T10:33:44.261Z,20.10
2018-09-16T10:34:44.244Z,20.07
2018-09-16T10:35:44.228Z,20.10
2018-09-16T10:36:44.210Z,20.04
2018-09-16T10:37:44.201Z,20.11
2018-09-16T10:38:44.222Z,20.15
2018-09-16T10:39:44.219Z,20.08
2018-09-16T10:40:44.144Z,20.14
2018-09-16T10:41:44.129Z,20.17
2018-09-16T10:42:44.115Z,20.21
2018-09-16T10:43:44.183Z,20.22
2018-09-16T10:44:44.076Z,20.29
2018-09-16T10:45:44.059Z,20.26
2018-09-16T10:46:44.042Z,20.33
2018-09-16T10:47:44.096Z,20.39
2018-09-16T10:48:44.070Z,20.44
2018-09-16T10:49:44.038Z,20.49
2018-09-16T10:50:43.977Z,20.50
2018-09-16T10:51:44.068Z,20.46
2018-09-16T10:52:43.944Z,20.52
2018-09-16T10:53:44.913Z,20.46
2018-09-16T10:54:43.982Z,20.44
2018-09-16T10:55:43.900Z,20.49
2018-09-16T10:56:43.880Z,20.44
2018-09-16T10:57:43.863Z,20.42
2018-09-16T10:58:43.847Z,20.53
2018-09-16T10:59:43.848Z,20.40
2018-09-16T11:00:46.537Z,20.49
2018-09-16T11:01:43.802Z,20.44
2018-09-16T11:02:43.779Z,20.33
2018-09-16T11:03:43.845Z,20.46
2018-09-16T11:04:43.748Z,20.46
2018-09-16T11:05:43.807Z,20.46
2018-09-16T11:06:44.173Z,20.53
2018-09-16T11:07:43.709Z,20.53
2018-09-16T11:08:43.684Z,20.52
2018-09-16T11:09:43.876Z,20.53
2018-09-16T11:10:43.688Z,20.56
2018-09-16T11:11:43.635Z,20.56
2018-09-16T11:12:43.622Z,20.60
2018-09-16T11:13:43.600Z,20.59
2018-09-16T11:14:43.632Z,20.58
2018-09-16T11:15:43.606Z,20.64
2018-09-16T11:16:43.551Z,20.66
2018-09-16T11:17:43.537Z,20.68
2018-09-16T11:18:43.517Z,20.75
2018-09-16T11:19:43.504Z,20.80
2018-09-16T11:20:43.486Z,20.90
2018-09-16T11:21:43.501Z,20.95
2018-09-16T11:22:43.479Z,20.93
2018-09-16T11:23:43.460Z,20.93
2018-09-16T11:24:43.423Z,20.96
2018-09-16T11:25:43.443Z,21.07
2018-09-16T11:26:43.392Z,21.10
2018-09-16T11:27:43.461Z,21.19
2018-09-16T11:28:43.358Z,21.19
2018-09-16T11:29:43.374Z,21.20
2018-09-16T11:30:43.388Z,21.22
2018-09-16T11:31:43.309Z,21.23
2018-09-16T11:32:43.354Z,21.15
2018-09-16T11:33:43.286Z,21.19
2018-09-16T11:34:43.267Z,21.14
2018-09-16T11:35:43.256Z,21.17
2018-09-16T11:36:43.229Z,21.19
2018-09-16T11:37:43.211Z,21.20
2018-09-16T11:38:43.196Z,21.23
2018-09-16T11:39:43.178Z,21.19
2018-09-16T11:40:43.277Z,21.22
2018-09-16T11:41:43.150Z,21.19
2018-09-16T11:42:43.200Z,21.25
2018-09-16T11:43:43.119Z,21.22
2018-09-16T11:44:43.100Z,21.26
2018-09-16T11:45:43.085Z,21.23
2018-09-16T11:46:43.121Z,21.25
2018-09-16T11:47:43.050Z,21.22
2018-09-16T11:48:43.034Z,21.20
2018-09-16T11:49:43.018Z,21.19
2018-09-16T11:50:43.024Z,21.17
2018-09-16T11:51:43.063Z,21.17
2018-09-16T11:52:42.968Z,21.17
2018-09-16T11:53:42.963Z,21.25
2018-09-16T11:54:42.938Z,21.37
2018-09-16T11:55:42.922Z,21.23
2018-09-16T11:56:42.914Z,21.33
2018-09-16T11:57:42.893Z,21.35
2018-09-16T11:58:42.941Z,21.29
2018-09-16T11:59:42.871Z,21.41
2018-09-16T12:00:42.844Z,21.38
2018-09-16T12:01:42.836Z,21.48
2018-09-16T12:02:42.814Z,21.45
2018-09-16T12:03:42.797Z,21.48
2018-09-16T12:04:42.781Z,21.45
2018-09-16T12:05:42.772Z,21.45
2018-09-16T12:06:42.753Z,21.48
2018-09-16T12:07:42.736Z,21.47
2018-09-16T12:08:43.343Z,21.47
2018-09-16T12:09:42.704Z,21.60
2018-09-16T12:10:42.687Z,21.60
2018-09-16T12:11:42.734Z,21.54
2018-09-16T12:12:42.652Z,21.62
2018-09-16T12:13:42.641Z,21.60
2018-09-16T12:14:42.631Z,21.51
2018-09-16T12:15:42.610Z,21.54
2018-09-16T12:16:42.590Z,21.62
2018-09-16T12:17:42.581Z,21.51
2018-09-16T12:18:42.559Z,21.60
2018-09-16T12:19:42.551Z,21.59
2018-09-16T12:20:42.531Z,21.60
2018-09-16T12:21:42.512Z,21.69
2018-09-16T12:22:42.497Z,21.63
2018-09-16T12:23:42.483Z,21.56
2018-09-16T12:24:42.469Z,21.66
2018-09-16T12:25:42.478Z,21.72
2018-09-16T12:26:42.437Z,21.75
2018-09-16T12:27:42.422Z,21.74
2018-09-16T12:28:42.405Z,21.65
2018-09-16T12:29:42.396Z,21.72
2018-09-16T12:30:42.385Z,21.74
2018-09-16T12:31:42.356Z,21.77
2018-09-16T12:32:42.341Z,21.81
2018-09-16T12:33:42.329Z,21.80
2018-09-16T12:34:42.314Z,21.88
2018-09-16T12:35:42.308Z,21.80
2018-09-16T12:36:42.280Z,21.83
2018-09-16T12:37:42.268Z,21.92
2018-09-16T12:38:42.247Z,21.80
2018-09-16T12:39:42.234Z,21.81
2018-09-16T12:40:42.216Z,21.80
2018-09-16T12:41:42.209Z,21.89
2018-09-16T12:42:42.223Z,21.84
2018-09-16T12:43:42.546Z,21.83
2018-09-16T12:44:42.155Z,21.83
2018-09-16T12:45:42.140Z,21.88
2018-09-16T12:46:42.131Z,21.94
2018-09-16T12:47:42.115Z,21.91
2018-09-16T12:48:42.103Z,21.94
2018-09-16T12:49:42.079Z,21.89
2018-09-16T12:50:42.075Z,21.85
2018-09-16T12:51:42.051Z,21.92
2018-09-16T12:52:42.029Z,21.92